Portada
METAR-TAF:

METAR-TAF

Aeropuertos :

Vereeniging, Sudáfrica

latitud: 26-34-29S, longitud: 027-57-45E, altitud: 1483 m

Observación

El informe se hizo hace 56 minutos, a las 06:00 UTC
Viento 8 kt del norte-noreste
Temperatura 15°C
Humedad 82%
Presión 1029 hPa

METAR: FAVV 160600Z AUTO 03008KT //// // ////// 15/12 Q1029

Hora: 08:56 (06:56 UTC)


TAF: falta

Observaciones y pronósticos meteorológicos de más de 4000 aeropuertos (mensajes METAR y TAF).

Los puntos amarillos y rojos representan las estaciones disponibles.

Ponga el ratón en el punto deseado para ver el nombre de la estación.

Haga clic para ver las observaciones y los pronósticos meteorológicos.

Para cambiar el mapa : haga clic en los botones verdes con una cruz de color negro para hacer un zoom, en el botón verde con un guión para alejar o en las flechas verdes para mapas adyacentes.


METAR-TAF: